Chippewa Valley Regional, WI

8:05 PM CST on November 18, 2017 (GMT -0600)
Chippewa Valley Regional | | Change Station

Elev 906 ft 44.87 °N, 91.49 °W | Updated 9 minutes ago

Mostly Cloudy
Mostly Cloudy
28 °F
Feels Like 16 °F
N
17
Wind Variable Wind from NNW
Gusts 28 mph

Today
High -- | Low -- °F
--% Chance of Precip.
Yesterday
High -- | Low -- °F
Precip. -- in
Pressure 29.94 in
Visibility 10.0 miles
Clouds Mostly Cloudy 3200 ft
Windchill 16 °F
Dew Point 15 °F
Humidity 58%
Rainfall 0.00 in
Snow Depth Not available.
7:07 AM 4:34 PM
New Moon, 0% visible
METAR KEAU 190156Z 33015G24KT 10SM BKN032 M02/M09 A2990 RMK AO2 SLP136 T10221094
Pressure 29.94 in
Visibility 10.0 miles
Clouds Mostly Cloudy 3200 ft
Windchill 16 °F
Dew Point 15 °F
Humidity 58%
Rainfall 0.00 in
Snow Depth Not available.
7:07 AM 4:34 PM
New Moon, 0% visible
METAR KEAU 190156Z 33015G24KT 10SM BKN032 M02/M09 A2990 RMK AO2 SLP136 T10221094

Get Severe Weather Alerts

Thanks for signing up!

Be on the lookout for a verification email in your inbox.

You'll start receiving the daily forecast at 6 AM.

×

10-Day Weather Forecast

Almanac

Astronomy

Nov. 18, 2017 Rise Set
Actual Time
Civil Twilight
Nautical Twilight
Astronomical Twilight
Moon
Length of Visible Light
Length of Day
Tomorrow will be .
, % of the Moon is Illuminated

Today's Extremes

State Highs State Lows

Community

WunderPhotos

Category 6

Welcome to Category 6. This is the collective home for Weather Underground's featured writeups by Dr. Jeff Masters (right), Bob Henson (left), Chris Burt, and other regular contributors.

Nearby

Air Quality

  Air Quality AQ Index Pollutant
Not available.

Snow Depth

Station Depth Elevation

Earthquake Activity

City Distance Mag. Time & Date
Minimum magnitude displayed is 2.5.

Coastal Water Temperatures

Place Temperature

Stations

Nearby Weather Stations

Station Location Temp. Windchill Dew Point Humidity Wind Precip. Elev Updated Type
                   

Watches & Warnings

There are currently no watches in effect.